Calgary / Blue-Con

CA-0867 · 艾伯塔, 加拿大

罗盘
风向 的 风向 的 风向 到 风向 290° 直升机
风: 6 kt, 2 beaufort
0 ft 6.000 12.000 18.000 24.000 30.000
Cloud Cloud Cloud Cloud Cloud Cloud Cloud Cloud
OVC 23.000
METAR CYYC 241600Z 29006KT 240V320 30SM OVC230 14/M08 A2976 RMK CI8 CONTRAILS SLP089 DENSITY ALT 4500FT

METAR Calgary / Blue-Con - CA-0867

Calgary / Blue-Con是,加拿大中的直升机场。 该机场位于纬度50,99700和经度-113,94400。 这个机场没有ICAO代码,我们使用CA-0867作为参考。 机场在Edmonton FIR中。

该航空气象观测是针对Calgary International Airport在2024年4月24日 10:00, 当地时间进行的。

机场观察

风向为290°,速度为6 kt。 风向在240°和320°之间变化。

可见度为30 mi。

有乌云密布在23.000 ft的高度。 破损或更高的上限为23.000 ft。

温度和风寒是14 °C。 露点为-8 °C,相对湿度为21%。 海平面上的气压为29,76 inHg (QNH)。

白天

今天,太阳从06:20升起,在20:47降落。 这适用于Calgary / Blue-Con,世界夏令时可能有所不同。 当地时间与世界标准时间之间的时差为-6 小时。 夏令时目前正在进行中。

公司介绍

我们没有关于这个机场的公司信息。

体会

到Vliegles.nl去找飞行课程,跳伞和其他飞行体验。 浏览页面,了解Calgary / Blue-Con附近所有可用的活动。 你也可以使用搜索功能来寻找你所在地附近的特定飞行课程、跳伞或其他飞行体验。

乌云

23.000 ft OVC 乌云密布

温度 & 天气

温度 14 °C
露点 -8 °C
相对湿度 21%
Kp-index 0 (0-9)

评论

SLP089海平面压力为29,79 inHg (29,79 inHg)
CI8 CONTRAILS DENSITY ALT 4500FT

白天

日出
06:20
中午
13:34
日落
20:47 (10:16)

小工具

你想在你的网站上有一个关于Calgary / Blue-Con的当前航空天气(METAR)的小部件吗?

显示HTML代码
报告变更